Time;durP1;ratioP1;P1;durP2;ratioP2;P2;SDS_P1;SDS_P2;PMS_P1;PMS_P2;Temp;Humidity;BMP_temperature;BMP_pressure;BME280_temperature;BME280_humidity;BME280_pressure;Samples;Min_cycle;Max_cycle;Signal;HPM_P1;HPM_P2
2021/04/27 00:04:15;;;;;;;;;;;5.10;99.90;;;;;;10573987;28;20301;-90
2021/04/27 00:09:17;;;;;;;;;;;5.20;99.90;;;;;;10547602;28;19924;-89
2021/04/27 00:14:18;;;;;;;;;;;6.60;99.90;;;;;;10549133;28;19963;-90
2021/04/27 00:19:20;;;;;;;;;;;4.80;99.90;;;;;;10530316;28;19935;-90
2021/04/27 00:24:21;;;;;;;;;;;4.70;99.90;;;;;;10549683;28;20392;-90
2021/04/27 00:29:22;;;;;;;;;;;4.70;99.90;;;;;;10589643;28;19924;-90
2021/04/27 00:34:24;;;;;;;;;;;4.60;99.90;;;;;;10572770;28;19934;-90
2021/04/27 00:39:25;;;;;;;;;;;7.30;99.90;;;;;;10588499;28;19924;-90
2021/04/27 00:44:27;;;;;;;;;;;4.50;99.90;;;;;;10570791;28;19931;-90
2021/04/27 00:49:29;;;;;;;;;;;5.40;99.90;;;;;;10589831;28;19924;-89
2021/04/27 00:54:30;;;;;;;;;;;5.40;99.90;;;;;;10589738;28;19923;-90
2021/04/27 00:59:32;;;;;;;;;;;4.90;99.90;;;;;;10588385;28;19923;-90
2021/04/27 01:04:33;;;;;;;;;;;3.90;99.90;;;;;;10588576;28;19924;-90
2021/04/27 01:09:41;;;;;;;;;;;6.50;99.90;;;;;;10588164;28;19930;-90
2021/04/27 01:14:44;;;;;;;;;;;4.00;99.90;;;;;;10550031;28;19931;-90
2021/04/27 01:20:06;;;;;;;;;;;4.20;99.90;;;;;;10546025;28;19924;-90
2021/04/27 01:25:08;;;;;;;;;;;4.00;99.90;;;;;;10546059;28;19924;-90
2021/04/27 01:30:10;;;;;;;;;;;3.90;99.90;;;;;;10578562;28;19931;-90
2021/04/27 01:35:11;;;;;;;;;;;3.90;99.90;;;;;;10587423;28;19924;-90
2021/04/27 01:40:13;;;;;;;;;;;3.70;99.90;;;;;;10559948;28;19924;-90
2021/04/27 01:45:15;;;;;;;;;;;3.50;99.90;;;;;;10574193;28;19927;-90
2021/04/27 01:50:16;;;;;;;;;;;3.60;99.90;;;;;;10540899;22;19925;-86
2021/04/27 01:55:18;;;;;;;;;;;3.80;99.90;;;;;;10395870;28;19925;-86
2021/04/27 02:00:23;;;;;;;;;;;4.20;99.90;;;;;;10412166;28;19925;-86
2021/04/27 02:05:25;;;;;;;;;;;3.50;99.90;;;;;;10427986;28;20402;-86
2021/04/27 02:10:26;;;;;;;;;;;3.20;99.90;;;;;;10412467;28;19929;-86
2021/04/27 02:15:28;;;;;;;;;;;5.40;99.90;;;;;;10412848;28;19931;-86
2021/04/27 02:20:35;;;;;;;;;;;5.70;99.90;;;;;;10412724;28;19972;-86
2021/04/27 02:25:37;;;;;;;;;;;3.40;99.90;;;;;;10411679;28;19925;-87
2021/04/27 02:30:39;;;;;;;;;;;5.90;99.90;;;;;;10412962;28;19925;-86
2021/04/27 02:35:40;;;;;;;;;;;2.70;99.90;;;;;;10428424;28;19925;-86
2021/04/27 02:40:41;;;;;;;;;;;3.10;99.90;;;;;;10469078;27;19924;-86
2021/04/27 02:45:43;;;;;;;;;;;2.50;99.90;;;;;;10451684;28;20024;-86
2021/04/27 02:50:46;;;;;;;;;;;2.60;99.90;;;;;;10450510;28;19939;-86
2021/04/27 02:55:48;;;;;;;;;;;2.60;99.90;;;;;;10450820;28;19925;-86
2021/04/27 03:00:50;;;;;;;;;;;5.80;99.90;;;;;;10451357;28;19925;-86
2021/04/27 03:05:51;;;;;;;;;;;2.40;99.90;;;;;;10467827;28;19924;-86
2021/04/27 03:10:53;;;;;;;;;;;2.40;99.90;;;;;;10452261;28;19925;-86
2021/04/27 03:15:54;;;;;;;;;;;2.20;99.90;;;;;;10467279;28;20007;-86
2021/04/27 03:20:56;;;;;;;;;;;2.30;99.90;;;;;;10450391;28;19971;-86
2021/04/27 03:25:58;;;;;;;;;;;2.10;99.90;;;;;;10418350;28;19925;-86
2021/04/27 03:30:59;;;;;;;;;;;4.90;99.90;;;;;;10424558;28;19925;-86
2021/04/27 03:36:01;;;;;;;;;;;1.80;99.90;;;;;;10437336;28;20019;-86
2021/04/27 03:41:02;;;;;;;;;;;2.10;99.90;;;;;;10449895;28;19931;-86
2021/04/27 03:46:04;;;;;;;;;;;2.10;99.90;;;;;;10450947;28;19971;-86
2021/04/27 03:51:06;;;;;;;;;;;3.70;99.90;;;;;;10449765;28;19928;-86
2021/04/27 03:56:07;;;;;;;;;;;2.10;99.90;;;;;;10434919;28;20359;-86
2021/04/27 04:01:08;;;;;;;;;;;4.60;99.90;;;;;;10449810;28;19932;-86
2021/04/27 04:06:10;;;;;;;;;;;1.50;99.90;;;;;;10552832;28;19924;-86
2021/04/27 04:11:11;;;;;;;;;;;1.80;99.90;;;;;;10606886;28;19930;-86
2021/04/27 04:16:12;;;;;;;;;;;4.40;99.90;;;;;;10639951;27;19924;-86
2021/04/27 04:21:14;;;;;;;;;;;1.90;99.90;;;;;;10624009;28;19924;-86
2021/04/27 04:26:16;;;;;;;;;;;1.80;99.90;;;;;;10483854;27;19929;-86
2021/04/27 04:31:17;;;;;;;;;;;1.90;99.90;;;;;;10449409;28;20374;-86
2021/04/27 04:36:19;;;;;;;;;;;1.70;99.90;;;;;;10449972;28;19925;-86
2021/04/27 04:41:20;;;;;;;;;;;1.80;99.90;;;;;;10449284;28;20394;-86
2021/04/27 04:46:21;;;;;;;;;;;1.50;99.90;;;;;;10456998;28;19925;-87
2021/04/27 04:51:23;;;;;;;;;;;2.00;99.90;;;;;;10455337;28;19931;-87
2021/04/27 04:56:25;;;;;;;;;;;1.90;99.90;;;;;;10457057;28;19968;-88
2021/04/27 05:01:26;;;;;;;;;;;0.40;99.90;;;;;;10454735;28;19925;-87
2021/04/27 05:06:33;;;;;;;;;;;1.90;99.90;;;;;;10415656;28;20012;-87
2021/04/27 05:11:34;;;;;;;;;;;2.00;99.90;;;;;;10397599;28;19925;-87
2021/04/27 05:16:36;;;;;;;;;;;3.10;99.90;;;;;;10397279;28;20028;-87
2021/04/27 05:21:38;;;;;;;;;;;2.30;99.90;;;;;;10413957;28;19925;-87
2021/04/27 05:26:39;;;;;;;;;;;2.50;99.90;;;;;;10412836;28;19926;-87
2021/04/27 05:31:40;;;;;;;;;;;2.60;99.90;;;;;;10414127;28;19925;-88
2021/04/27 05:36:42;;;;;;;;;;;2.70;99.90;;;;;;10396237;28;19925;-87
2021/04/27 05:41:43;;;;;;;;;;;2.60;99.90;;;;;;10414373;28;19931;-86
2021/04/27 05:46:45;;;;;;;;;;;3.20;99.90;;;;;;10422644;28;19974;-86
2021/04/27 05:51:46;;;;;;;;;;;3.20;99.90;;;;;;10412187;28;19929;-86
2021/04/27 05:56:48;;;;;;;;;;;3.40;99.90;;;;;;10394915;28;19932;-86
2021/04/27 06:01:49;;;;;;;;;;;3.90;99.90;;;;;;10411732;28;19947;-86
2021/04/27 06:06:52;;;;;;;;;;;4.80;99.90;;;;;;10408076;28;19986;-88
2021/04/27 06:11:55;;;;;;;;;;;7.20;99.90;;;;;;10411552;28;19932;-89
2021/04/27 06:16:57;;;;;;;;;;;7.00;99.90;;;;;;10395778;28;20048;-87
2021/04/27 06:21:58;;;;;;;;;;;6.60;99.90;;;;;;10417918;28;20379;-87
2021/04/27 06:26:59;;;;;;;;;;;7.00;99.90;;;;;;10452235;28;19932;-87
2021/04/27 06:32:20;;;;;;;;;;;6.70;99.90;;;;;;10397343;28;20364;-89
2021/04/27 06:37:22;;;;;;;;;;;9.80;97.90;;;;;;10411241;28;19925;-87
2021/04/27 06:42:23;;;;;;;;;;;10.70;96.80;;;;;;10411440;28;19925;-87
2021/04/27 06:47:24;;;;;;;;;;;9.80;94.50;;;;;;10410761;28;19925;-87
2021/04/27 06:52:26;;;;;;;;;;;;;;;;;;10419897;28;20273;-89
2021/04/27 06:57:28;;;;;;;;;;;9.80;93.10;;;;;;10414630;28;19925;-88
2021/04/27 07:02:29;;;;;;;;;;;10.10;93.40;;;;;;10410889;28;19925;-86
2021/04/27 07:07:31;;;;;;;;;;;9.60;92.50;;;;;;10409835;28;19932;-87
2021/04/27 07:12:32;;;;;;;;;;;9.60;93.30;;;;;;10410242;28;19925;-86
2021/04/27 07:17:33;;;;;;;;;;;10.10;91.40;;;;;;10426493;28;20011;-87
2021/04/27 07:22:35;;;;;;;;;;;10.70;91.40;;;;;;10408793;28;20522;-87
2021/04/27 07:27:37;;;;;;;;;;;10.90;87.40;;;;;;10409748;28;20363;-87
2021/04/27 07:32:39;;;;;;;;;;;11.00;84.60;;;;;;10410283;28;19925;-86
2021/04/27 07:37:40;;;;;;;;;;;;;;;;;;10393089;28;20005;-87
2021/04/27 07:42:43;;;;;;;;;;;11.80;97.90;;;;;;10410047;28;19970;-86
2021/04/27 07:47:44;;;;;;;;;;;;;;;;;;10410225;28;19925;-86
2021/04/27 07:52:46;;;;;;;;;;;;;;;;;;10409695;28;19929;-86
2021/04/27 07:57:48;;;;;;;;;;;;;;;;;;10409184;28;19926;-86
2021/04/27 08:02:51;;;;;;;;;;;11.20;99.90;;;;;;10409412;28;19925;-86
2021/04/27 08:07:53;;;;;;;;;;;10.60;97.70;;;;;;10408977;28;19948;-85
2021/04/27 08:12:56;;;;;;;;;;;;;;;;;;10407800;28;19929;-86
2021/04/27 08:17:59;;;;;;;;;;;;;;;;;;10411225;28;19932;-85
2021/04/27 08:23:01;;;;;;;;;;;;;;;;;;10415427;28;19931;-90
2021/04/27 08:28:21;;;;;;;;;;;;;;;;;;10425156;28;19931;-90
2021/04/27 08:33:23;;;;;;;;;;;14.40;55.30;;;;;;10458534;28;20329;-91
2021/04/27 08:38:25;;;;;;;;;;;13.20;57.20;;;;;;10530511;22;19924;-91
2021/04/27 08:43:26;;;;;;;;;;;13.60;59.40;;;;;;10503525;28;19964;-88
2021/04/27 08:48:28;;;;;;;;;;;14.40;56.70;;;;;;10503587;28;20020;-89
2021/04/27 08:53:30;;;;;;;;;;;14.80;53.60;;;;;;10504937;28;19970;-88
2021/04/27 08:58:32;;;;;;;;;;;14.40;54.60;;;;;;10530809;28;19924;-92
2021/04/27 09:03:43;;;;;;;;;;;15.40;56.30;;;;;;10545835;28;20408;-89
2021/04/27 09:08:46;;;;;;;;;;;15.70;51.30;;;;;;10504193;28;20379;-90
2021/04/27 09:14:04;;;;;;;;;;;14.90;53.70;;;;;;10523918;28;20019;-90
2021/04/27 09:19:06;;;;;;;;;;;14.90;52.40;;;;;;10545587;28;19924;-90
2021/04/27 09:24:11;;;;;;;;;;;15.70;53.00;;;;;;10544760;28;20057;-91
2021/04/27 09:29:26;;;;;;;;;;;16.00;51.50;;;;;;10542864;28;19924;-90
2021/04/27 09:34:32;;;;;;;;;;;15.50;50.30;;;;;;10545500;28;19924;-90
2021/04/27 09:39:33;;;;;;;;;;;17.00;52.30;;;;;;10543931;28;19931;-88
2021/04/27 09:44:51;;;;;;;;;;;16.10;48.80;;;;;;10543008;28;19946;-91
2021/04/27 09:50:00;;;;;;;;;;;16.40;48.80;;;;;;10529303;28;19936;-89
2021/04/27 09:55:05;;;;;;;;;;;17.30;46.70;;;;;;10500635;28;19964;-90
2021/04/27 10:00:27;;;;;;;;;;;17.30;49.40;;;;;;10501490;28;19924;-90
2021/04/27 10:05:29;;;;;;;;;;;16.40;48.80;;;;;;10500631;28;19924;-90
2021/04/27 10:10:31;;;;;;;;;;;16.90;45.90;;;;;;10501608;28;20252;-91
2021/04/27 10:15:33;;;;;;;;;;;15.10;46.00;;;;;;10501717;28;19924;-90
2021/04/27 10:20:34;;;;;;;;;;;16.90;45.90;;;;;;10499922;28;20393;-91
2021/04/27 10:25:36;;;;;;;;;;;16.10;47.40;;;;;;10518535;28;19928;-91
2021/04/27 10:30:41;;;;;;;;;;;17.10;43.40;;;;;;10542177;28;19928;-92
2021/04/27 10:36:03;;;;;;;;;;;16.20;45.20;;;;;;10524732;28;19931;-90
2021/04/27 10:41:15;;;;;;;;;;;16.30;48.50;;;;;;10529443;28;19959;-89
2021/04/27 10:46:16;;;;;;;;;;;16.00;44.90;;;;;;10542590;28;20016;-90
2021/04/27 10:51:20;;;;;;;;;;;16.20;44.80;;;;;;10518229;28;19935;-90
2021/04/27 10:56:34;;;;;;;;;;;18.30;47.80;;;;;;10482192;28;20359;-89
2021/04/27 11:01:37;;;;;;;;;;;16.80;43.10;;;;;;10499400;28;19925;-88
2021/04/27 11:06:39;;;;;;;;;;;16.80;41.80;;;;;;10499836;28;19924;-88
2021/04/27 11:11:41;;;;;;;;;;;17.10;43.40;;;;;;10515873;28;19924;-91
2021/04/27 11:16:43;;;;;;;;;;;16.10;43.20;;;;;;10538818;28;19924;-90
2021/04/27 11:21:46;;;;;;;;;;;16.10;41.70;;;;;;10535860;28;19928;-92
2021/04/27 11:26:52;;;;;;;;;;;15.80;43.60;;;;;;10539795;28;19999;-90
2021/04/27 11:32:04;;;;;;;;;;;16.00;45.10;;;;;;10541026;28;19924;-91
2021/04/27 11:37:06;;;;;;;;;;;16.50;50.10;;;;;;10539248;28;19924;-92
2021/04/27 11:42:08;;;;;;;;;;;17.30;41.70;;;;;;10503209;28;19934;-91
2021/04/27 11:47:20;;;;;;;;;;;17.70;44.60;;;;;;10528379;28;19946;-91
2021/04/27 11:52:53;;;;;;;;;;;17.40;41.80;;;;;;10526725;28;19924;-93
2021/04/27 11:58:00;;;;;;;;;;;17.50;41.80;;;;;;10550357;28;19926;-91
2021/04/27 12:03:12;;;;;;;;;;;16.80;40.20;;;;;;10549118;28;19924;-91
2021/04/27 12:08:17;;;;;;;;;;;16.10;42.50;;;;;;10520182;28;19924;-90
2021/04/27 12:13:22;;;;;;;;;;;16.20;42.30;;;;;;10547788;28;19924;-90
2021/04/27 12:18:24;;;;;;;;;;;16.40;40.50;;;;;;10547266;28;20271;-90
2021/04/27 12:23:25;;;;;;;;;;;17.70;40.10;;;;;;10529154;28;19924;-91
2021/04/27 12:28:26;;;;;;;;;;;17.80;41.90;;;;;;10548196;28;19924;-91
2021/04/27 12:33:28;;;;;;;;;;;16.90;41.00;;;;;;10547920;28;20026;-92
2021/04/27 12:38:35;;;;;;;;;;;16.80;39.80;;;;;;10401983;28;19926;-92
2021/04/27 12:43:39;;;;;;;;;;;16.80;38.90;;;;;;10401126;28;20291;-91
2021/04/27 12:48:42;;;;;;;;;;;17.30;41.90;;;;;;10400103;28;20377;-91
2021/04/27 12:53:45;;;;;;;;;;;17.00;42.30;;;;;;10418064;28;19926;-91
2021/04/27 12:58:47;;;;;;;;;;;16.70;39.40;;;;;;10333076;28;19925;-92
2021/04/27 13:03:57;;;;;;;;;;;16.90;39.60;;;;;;10418435;28;19934;-91
2021/04/27 13:09:06;;;;;;;;;;;17.40;37.40;;;;;;10334112;28;19926;-94
2021/04/27 13:14:20;;;;;;;;;;;17.10;39.40;;;;;;10334712;28;19926;-93
2021/04/27 13:19:22;;;;;;;;;;;17.70;41.30;;;;;;10333975;28;19932;-91
2021/04/27 13:24:23;;;;;;;;;;;17.40;38.70;;;;;;10339826;28;19933;-92
2021/04/27 13:29:24;;;;;;;;;;;17.70;42.00;;;;;;10400091;28;19926;-91
2021/04/27 13:34:26;;;;;;;;;;;17.70;39.60;;;;;;10424177;28;20008;-91
2021/04/27 13:39:27;;;;;;;;;;;17.30;38.40;;;;;;10527540;28;19925;-92
2021/04/27 13:44:29;;;;;;;;;;;17.50;38.20;;;;;;10543542;28;20393;-92
2021/04/27 13:49:33;;;;;;;;;;;16.90;37.50;;;;;;10544646;28;19924;-91
2021/04/27 13:54:36;;;;;;;;;;;17.50;38.90;;;;;;10543986;28;19932;-91
2021/04/27 13:59:38;;;;;;;;;;;16.80;38.60;;;;;;10543562;28;20060;-91
2021/04/27 14:04:39;;;;;;;;;;;17.40;40.50;;;;;;10541727;28;19930;-90
2021/04/27 14:09:40;;;;;;;;;;;17.80;39.50;;;;;;10536788;28;19931;-91
2021/04/27 14:14:44;;;;;;;;;;;17.60;38.60;;;;;;10513612;28;20619;-91
2021/04/27 14:19:46;;;;;;;;;;;17.60;39.30;;;;;;10528494;28;19928;-90
2021/04/27 14:24:47;;;;;;;;;;;17.60;41.60;;;;;;10566930;28;19928;-90
2021/04/27 14:29:49;;;;;;;;;;;17.70;38.30;;;;;;10567806;28;19931;-93
2021/04/27 14:34:50;;;;;;;;;;;17.30;37.20;;;;;;10529584;22;19925;-93
2021/04/27 14:39:53;;;;;;;;;;;16.80;37.00;;;;;;10394966;28;19929;-93
2021/04/27 14:44:54;;;;;;;;;;;17.00;37.80;;;;;;10410698;28;20302;-93
2021/04/27 14:49:56;;;;;;;;;;;17.50;37.90;;;;;;10496667;27;20361;-92
2021/04/27 14:54:57;;;;;;;;;;;17.10;38.60;;;;;;10394007;28;19929;-92
2021/04/27 14:59:59;;;;;;;;;;;17.60;38.80;;;;;;10383984;28;20016;-92
2021/04/27 15:05:00;;;;;;;;;;;16.90;40.20;;;;;;10411630;28;19965;-92
2021/04/27 15:10:03;;;;;;;;;;;17.10;39.60;;;;;;10409090;28;19925;-90
2021/04/27 15:15:07;;;;;;;;;;;16.30;38.00;;;;;;10409938;28;19974;-90
2021/04/27 15:20:09;;;;;;;;;;;16.80;38.30;;;;;;10408833;28;20430;-92
2021/04/27 15:25:12;;;;;;;;;;;17.00;38.10;;;;;;10401083;28;19936;-93
2021/04/27 15:30:15;;;;;;;;;;;16.70;37.40;;;;;;10391753;28;19960;-93
2021/04/27 15:35:17;;;;;;;;;;;16.50;39.40;;;;;;10389323;28;19925;-91
2021/04/27 15:40:21;;;;;;;;;;;17.00;39.30;;;;;;10404262;28;19936;-90
2021/04/27 15:45:23;;;;;;;;;;;17.00;38.20;;;;;;10368178;28;19949;-91
2021/04/27 15:50:26;;;;;;;;;;;16.40;38.60;;;;;;10421622;28;20016;-92
2021/04/27 15:55:28;;;;;;;;;;;16.30;38.30;;;;;;10386488;28;20287;-92
2021/04/27 16:00:30;;;;;;;;;;;16.70;40.70;;;;;;10387030;28;19936;-92
2021/04/27 16:05:31;;;;;;;;;;;16.60;39.90;;;;;;10369625;28;19925;-91
2021/04/27 16:10:32;;;;;;;;;;;16.80;40.30;;;;;;10369646;28;19959;-92
2021/04/27 16:15:34;;;;;;;;;;;16.30;41.30;;;;;;10368211;28;19932;-92
2021/04/27 16:20:35;;;;;;;;;;;16.20;39.40;;;;;;10375436;28;19925;-91
2021/04/27 16:25:36;;;;;;;;;;;16.10;39.90;;;;;;10408327;28;19933;-90
2021/04/27 16:30:40;;;;;;;;;;;15.90;40.00;;;;;;10409093;28;19925;-91
2021/04/27 16:35:41;;;;;;;;;;;15.90;40.40;;;;;;10407237;28;19925;-91
2021/04/27 16:40:43;;;;;;;;;;;15.70;39.30;;;;;;10415023;28;19932;-91
2021/04/27 16:45:44;;;;;;;;;;;15.70;40.80;;;;;;10415156;28;19932;-89
2021/04/27 16:50:45;;;;;;;;;;;15.70;41.50;;;;;;10398904;28;20363;-89
2021/04/27 16:55:47;;;;;;;;;;;15.20;41.10;;;;;;10398082;28;19949;-90
2021/04/27 17:00:48;;;;;;;;;;;15.30;39.80;;;;;;10414036;28;20402;-90
2021/04/27 17:05:49;;;;;;;;;;;15.30;42.70;;;;;;10413828;28;19936;-89
2021/04/27 17:10:51;;;;;;;;;;;15.20;41.00;;;;;;10414994;28;19925;-90
2021/04/27 17:15:52;;;;;;;;;;;15.00;42.00;;;;;;10361308;28;19926;-90
2021/04/27 17:20:53;;;;;;;;;;;14.90;41.20;;;;;;10358488;28;19925;-90
2021/04/27 17:25:55;;;;;;;;;;;14.80;42.30;;;;;;10373679;28;19957;-89
2021/04/27 17:30:56;;;;;;;;;;;14.80;42.40;;;;;;10384106;28;19935;-89
2021/04/27 17:35:57;;;;;;;;;;;14.60;43.30;;;;;;10406943;28;20394;-89
2021/04/27 17:40:59;;;;;;;;;;;14.40;46.80;;;;;;10410170;28;20044;-89
2021/04/27 17:46:00;;;;;;;;;;;14.40;44.30;;;;;;10477624;28;20698;-88
2021/04/27 17:51:02;;;;;;;;;;;14.30;44.90;;;;;;10388256;28;19925;-89
2021/04/27 17:56:03;;;;;;;;;;;14.20;45.50;;;;;;10392434;28;19978;-89
2021/04/27 18:01:05;;;;;;;;;;;13.70;48.20;;;;;;10407241;28;19961;-89
2021/04/27 18:06:06;;;;;;;;;;;13.70;48.00;;;;;;10392018;28;19948;-89
2021/04/27 18:11:07;;;;;;;;;;;13.50;47.90;;;;;;10405890;28;20024;-89
2021/04/27 18:16:09;;;;;;;;;;;13.30;49.20;;;;;;10410007;28;19966;-89
2021/04/27 18:21:10;;;;;;;;;;;13.20;51.40;;;;;;10389668;28;19932;-89
2021/04/27 18:26:12;;;;;;;;;;;12.90;48.40;;;;;;10393464;28;19925;-89
2021/04/27 18:31:13;;;;;;;;;;;12.60;53.20;;;;;;10394488;28;19936;-89
2021/04/27 18:36:14;;;;;;;;;;;12.40;57.60;;;;;;10362016;28;19955;-90
2021/04/27 18:41:16;;;;;;;;;;;12.20;54.00;;;;;;10387551;28;19999;-89
2021/04/27 18:46:18;;;;;;;;;;;12.00;56.60;;;;;;10386097;28;19953;-90
2021/04/27 18:51:19;;;;;;;;;;;11.80;61.50;;;;;;10365764;28;19929;-89
2021/04/27 18:56:20;;;;;;;;;;;11.20;61.90;;;;;;10369948;28;19926;-89
2021/04/27 19:01:22;;;;;;;;;;;11.10;65.10;;;;;;10369492;28;19932;-89
2021/04/27 19:06:23;;;;;;;;;;;10.80;67.80;;;;;;10353458;28;19929;-89
2021/04/27 19:11:25;;;;;;;;;;;10.70;68.70;;;;;;10369453;28;19926;-89
2021/04/27 19:16:26;;;;;;;;;;;10.40;70.30;;;;;;10368780;28;19931;-89
2021/04/27 19:21:28;;;;;;;;;;;10.20;71.00;;;;;;10353364;28;19932;-90
2021/04/27 19:26:29;;;;;;;;;;;9.50;75.10;;;;;;10377850;28;19980;-89
2021/04/27 19:31:31;;;;;;;;;;;9.80;74.10;;;;;;10351319;28;19971;-89
2021/04/27 19:36:32;;;;;;;;;;;10.40;82.50;;;;;;10377546;28;19978;-89
2021/04/27 19:41:34;;;;;;;;;;;9.40;82.30;;;;;;10410379;28;20008;-90
2021/04/27 19:46:35;;;;;;;;;;;9.40;85.30;;;;;;10392982;28;19929;-90
2021/04/27 19:51:38;;;;;;;;;;;9.60;85.90;;;;;;10390181;28;19926;-89
2021/04/27 19:56:39;;;;;;;;;;;9.10;84.60;;;;;;10401004;28;20027;-88
2021/04/27 20:01:43;;;;;;;;;;;9.00;88.40;;;;;;10389041;28;20399;-90
2021/04/27 20:06:45;;;;;;;;;;;8.70;91.10;;;;;;10389677;28;20291;-89
2021/04/27 20:11:46;;;;;;;;;;;8.60;90.60;;;;;;10391860;28;20383;-89
2021/04/27 20:16:47;;;;;;;;;;;10.50;90.30;;;;;;10416012;28;19925;-89
2021/04/27 20:21:49;;;;;;;;;;;8.50;92.20;;;;;;10382367;28;20695;-89
2021/04/27 20:26:50;;;;;;;;;;;8.50;92.60;;;;;;10398690;28;19925;-89
2021/04/27 20:31:51;;;;;;;;;;;8.20;92.20;;;;;;10398859;28;19932;-89
2021/04/27 20:36:53;;;;;;;;;;;8.00;93.10;;;;;;10444310;22;19925;-86
2021/04/27 20:41:55;;;;;;;;;;;7.90;92.50;;;;;;10456344;28;19929;-86
2021/04/27 20:46:56;;;;;;;;;;;7.90;93.30;;;;;;10456528;28;20361;-86
2021/04/27 20:51:58;;;;;;;;;;;9.00;94.20;;;;;;10457050;28;19954;-86
2021/04/27 20:57:01;;;;;;;;;;;8.40;94.10;;;;;;10454332;28;21326;-86
2021/04/27 21:02:04;;;;;;;;;;;7.90;95.00;;;;;;10438676;28;20293;-86
2021/04/27 21:07:05;;;;;;;;;;;8.40;94.60;;;;;;10457094;28;19925;-86
2021/04/27 21:12:10;;;;;;;;;;;7.50;95.90;;;;;;10455782;28;20420;-86
2021/04/27 21:17:11;;;;;;;;;;;7.20;94.40;;;;;;10454340;28;19935;-86
2021/04/27 21:22:12;;;;;;;;;;;7.60;95.30;;;;;;10454256;28;19924;-86
2021/04/27 21:27:14;;;;;;;;;;;7.30;94.80;;;;;;10454087;28;19932;-86
2021/04/27 21:32:15;;;;;;;;;;;7.90;95.10;;;;;;10454010;28;19925;-86
2021/04/27 21:37:16;;;;;;;;;;;7.70;95.90;;;;;;10454283;28;20287;-86
2021/04/27 21:42:17;;;;;;;;;;;6.80;96.80;;;;;;10455324;28;20023;-86
2021/04/27 21:47:19;;;;;;;;;;;7.30;96.20;;;;;;10453526;28;20020;-86
2021/04/27 21:52:21;;;;;;;;;;;6.80;96.50;;;;;;10523017;27;20379;-86
2021/04/27 21:57:22;;;;;;;;;;;6.80;96.10;;;;;;10453621;28;20004;-86
2021/04/27 22:02:23;;;;;;;;;;;8.20;96.40;;;;;;10453152;28;19925;-87
2021/04/27 22:07:24;;;;;;;;;;;8.20;97.10;;;;;;10436752;28;19925;-87
2021/04/27 22:12:26;;;;;;;;;;;6.50;95.80;;;;;;10420453;28;19925;-86
2021/04/27 22:17:27;;;;;;;;;;;7.10;96.50;;;;;;10435930;28;20386;-87
2021/04/27 22:22:28;;;;;;;;;;;6.40;97.00;;;;;;10436976;28;20024;-87
2021/04/27 22:27:30;;;;;;;;;;;6.30;97.30;;;;;;10420651;28;19925;-86
2021/04/27 22:32:31;;;;;;;;;;;6.60;97.40;;;;;;10453755;28;20393;-86
2021/04/27 22:37:33;;;;;;;;;;;8.40;98.20;;;;;;10418425;28;19956;-87
2021/04/27 22:42:34;;;;;;;;;;;6.20;98.20;;;;;;10419592;28;19972;-86
2021/04/27 22:47:36;;;;;;;;;;;6.70;98.40;;;;;;10452942;28;19925;-87
2021/04/27 22:52:38;;;;;;;;;;;8.10;98.80;;;;;;10453383;28;19932;-86
2021/04/27 22:57:40;;;;;;;;;;;6.50;98.50;;;;;;10444526;28;20024;-86
2021/04/27 23:02:44;;;;;;;;;;;5.80;98.50;;;;;;10457913;28;20363;-87
2021/04/27 23:07:45;;;;;;;;;;;9.10;99.30;;;;;;10418864;28;19925;-87
2021/04/27 23:12:47;;;;;;;;;;;5.70;99.40;;;;;;10418145;28;19971;-87
2021/04/27 23:17:48;;;;;;;;;;;5.60;99.90;;;;;;10591720;27;19930;-87
2021/04/27 23:22:50;;;;;;;;;;;5.60;99.50;;;;;;10650837;27;19923;-87
2021/04/27 23:27:52;;;;;;;;;;;7.10;99.90;;;;;;10668879;27;19923;-87
2021/04/27 23:32:54;;;;;;;;;;;5.50;99.90;;;;;;10669373;27;19934;-87
2021/04/27 23:37:56;;;;;;;;;;;5.80;99.90;;;;;;10666697;27;19923;-87
2021/04/27 23:42:57;;;;;;;;;;;7.40;99.90;;;;;;10649558;27;20389;-87
2021/04/27 23:48:02;;;;;;;;;;;6.00;99.90;;;;;;10666235;27;19923;-87
2021/04/27 23:53:03;;;;;;;;;;;5.20;99.90;;;;;;10668389;27;19923;-87
2021/04/27 23:58:04;;;;;;;;;;;5.50;99.90;;;;;;10668702;27;20027;-87
